Airfield :
LOGIN :

Register | Disclaimer

   EN    FR    IT 

 










Legend :    VFR   Marginal VFR   IFR   Intensive IFR   Very Intensive IFR
Visi :
Ceiling :
>= 8 km
>= 3000ft
5 to 8 km
1000 to 3000 ft
1500m to 5 km
500 to 1000 ft
800 to 1500m
200 to 500 ft
< 800m
< 200 ft
Symbols :   Thunderstorms  Fog  Heavy snow  Heavy precipitations  Wind > 20 kt
SIGMETs :     Misc.  Thunderstorms  Icing  Turbulence  Mountain Waves  Volcanic Ashes






- Airport Elevation : 978 ft
- IATA code : LNZ


LOWL - Linz

CURRENT METAR :
  • 241320Z 30003KT 260V340 9999 FEW008 BKN011 01/M01 Q1024 TEMPO SCT010

EXPIRED METARs :
  • 241250Z VRB02KT 9999 FEW008 BKN010 00/M02 Q1025 TEMPO SCT010
  • 241220Z VRB02KT 8000 FEW008 BKN010 00/M02 Q1025 TEMPO FM1300 SCT010
  • 241150Z 29003KT 230V330 9000 FEW008 BKN010 00/M02 Q1025 TEMPO FM1300 SCT010
  • 241120Z 29004KT 8000 FEW008 BKN010 M00/M02 Q1026 TEMPO FM1300 SCT010
  • 241050Z 30004KT 270V330 9000 FEW008 BKN010 M00/M02 Q1026 TEMPO FM1200 SCT010

TAF TAF LOWL
Valid from the 24 at 12:00 until the 25 at 12:00 UTC


241115Z 2412/2512 27003KT 7000 OVC009 TX02/2512Z TNM03/2503Z
TEMPO 2412/2420 9999 FEW015
TEMPO 2421/2509 VRB01KT 1200 FZBCFG OVC004
PROB30 2423/2508 0300 FZFG VV001



MET'MAP, your aeronautical weather chart ! - Copyright ORBIFLY December 2007 - Disclaimer

ORBIFLY MET'MAP TEAM :

Programming & Development : Alexandra Zaïnal
Concept & original design : Baudouin d'Aumeries
Assistance for programming : Marc-Olivier Méhu
Technical & hardware support : Manuel Goepfert

Contact : metmap@orbifly.com




SOURCES & CREDITS :

   NOAA